createdAt,value
2022-09-18T00:02:36.326Z,6.26
2022-09-18T00:05:53.813Z,6.21
2022-09-18T00:09:18.835Z,8.10
2022-09-18T00:12:38.421Z,6.37
2022-09-18T00:15:59.708Z,6.10
2022-09-18T00:19:26.474Z,6.90
2022-09-18T00:22:50.141Z,6.54
2022-09-18T00:26:12.880Z,6.06
2022-09-18T00:29:33.548Z,6.16
2022-09-18T00:32:55.916Z,5.85
2022-09-18T00:36:26.568Z,7.11
2022-09-18T00:39:53.391Z,7.13
2022-09-18T00:43:25.747Z,7.08
2022-09-18T00:46:49.418Z,10.06
2022-09-18T00:50:23.878Z,9.49
2022-09-18T00:54:04.129Z,8.62
2022-09-18T00:57:34.977Z,6.94
2022-09-18T01:01:02.491Z,7.17
2022-09-18T01:04:23.146Z,6.96
2022-09-18T01:08:07.887Z,8.07
2022-09-18T01:11:49.736Z,8.88
2022-09-18T01:15:25.428Z,13.19
2022-09-18T01:18:59.975Z,12.33
2022-09-18T01:22:50.594Z,15.47
2022-09-18T01:26:42.574Z,17.85
2022-09-18T01:30:17.969Z,21.16
2022-09-18T01:33:55.378Z,18.26
2022-09-18T01:37:34.899Z,19.04
2022-09-18T01:41:03.239Z,16.03
2022-09-18T01:44:36.473Z,18.46
2022-09-18T01:48:08.413Z,23.01
2022-09-18T01:51:39.209Z,27.33
2022-09-18T01:55:06.527Z,27.72
2022-09-18T01:58:36.567Z,25.55
2022-09-18T02:02:11.565Z,23.57
2022-09-18T02:05:43.294Z,24.04
2022-09-18T02:09:12.899Z,15.03
2022-09-18T02:12:33.012Z,9.75
2022-09-18T02:16:08.761Z,7.36
2022-09-18T02:19:43.807Z,9.97
2022-09-18T02:23:11.689Z,13.09
2022-09-18T02:26:38.894Z,15.04
2022-09-18T02:30:06.843Z,12.70
2022-09-18T02:33:34.729Z,7.60
2022-09-18T02:37:16.518Z,6.01
2022-09-18T02:40:58.469Z,5.72
2022-09-18T02:44:35.663Z,5.68
2022-09-18T02:48:30.477Z,5.71
2022-09-18T02:52:08.647Z,6.06
2022-09-18T02:55:48.921Z,5.75
2022-09-18T02:59:25.236Z,4.93
2022-09-18T03:02:53.635Z,5.19
2022-09-18T03:06:26.065Z,6.29
2022-09-18T03:09:42.777Z,5.86
2022-09-18T03:13:05.225Z,6.64
2022-09-18T03:16:32.703Z,7.01
2022-09-18T03:19:52.860Z,7.08
2022-09-18T03:23:08.967Z,7.53
2022-09-18T03:26:28.817Z,7.81
2022-09-18T03:29:55.612Z,7.73
2022-09-18T03:33:19.021Z,6.98
2022-09-18T03:36:43.727Z,6.32
2022-09-18T03:40:11.311Z,6.41
2022-09-18T03:43:39.771Z,6.30
2022-09-18T03:47:09.755Z,5.89
2022-09-18T03:50:31.181Z,6.01
2022-09-18T03:53:52.721Z,6.70
2022-09-18T03:57:41.169Z,7.74
2022-09-18T04:01:31.230Z,7.44
2022-09-18T04:05:15.639Z,7.70
2022-09-18T04:08:58.179Z,8.27
2022-09-18T04:12:23.677Z,8.88
2022-09-18T04:16:00.547Z,9.04
2022-09-18T04:19:34.175Z,9.76
2022-09-18T04:22:53.101Z,9.32
2022-09-18T04:26:16.137Z,8.74
2022-09-18T04:29:46.340Z,8.70
2022-09-18T04:33:11.877Z,7.51
2022-09-18T04:36:31.841Z,7.21
2022-09-18T04:39:54.508Z,8.54
2022-09-18T04:43:13.223Z,9.46
2022-09-18T04:46:33.769Z,9.70
2022-09-18T04:49:54.104Z,10.77
2022-09-18T04:53:13.627Z,12.84
2022-09-18T04:56:32.968Z,14.95
2022-09-18T04:59:50.396Z,13.99
2022-09-18T05:03:14.305Z,11.19
2022-09-18T05:06:32.265Z,10.29
2022-09-18T05:09:56.103Z,10.16
2022-09-18T05:13:30.661Z,10.30
2022-09-18T05:16:53.275Z,12.01
2022-09-18T05:20:22.103Z,13.24
2022-09-18T05:23:45.534Z,14.78
2022-09-18T05:27:02.068Z,14.87
2022-09-18T05:30:24.319Z,16.51
2022-09-18T05:33:50.658Z,18.05
2022-09-18T05:37:10.711Z,17.07
2022-09-18T05:40:35.797Z,17.59
2022-09-18T05:43:53.836Z,17.90
2022-09-18T05:47:18.222Z,16.61
2022-09-18T05:50:46.275Z,17.70
2022-09-18T05:54:15.157Z,19.03
2022-09-18T05:57:40.509Z,18.18
2022-09-18T06:01:02.465Z,18.96
2022-09-18T06:04:43.172Z,22.06
2022-09-18T06:08:01.917Z,24.29
2022-09-18T06:11:20.513Z,24.60
2022-09-18T06:14:43.314Z,20.38
2022-09-18T06:18:04.239Z,18.73
2022-09-18T06:21:28.241Z,18.21
2022-09-18T06:24:53.255Z,18.35
2022-09-18T06:28:23.519Z,17.23
2022-09-18T06:31:40.805Z,17.02
2022-09-18T06:35:00.903Z,15.88
2022-09-18T06:38:25.945Z,17.18
2022-09-18T06:41:43.383Z,17.71
2022-09-18T06:45:12.412Z,17.44
2022-09-18T06:48:33.822Z,17.54
2022-09-18T06:52:04.587Z,18.72
2022-09-18T06:55:27.257Z,19.38
2022-09-18T06:58:44.105Z,17.91
2022-09-18T07:02:19.593Z,19.46
2022-09-18T07:05:54.099Z,18.92
2022-09-18T07:09:31.259Z,19.24
2022-09-18T07:12:59.871Z,17.71
2022-09-18T07:16:24.314Z,15.07
2022-09-18T07:19:44.146Z,15.93
2022-09-18T07:23:05.839Z,16.18
2022-09-18T07:26:41.329Z,14.36
2022-09-18T07:30:04.864Z,12.93
2022-09-18T07:33:31.271Z,12.55
2022-09-18T07:36:52.841Z,12.70
2022-09-18T07:40:14.897Z,12.32
2022-09-18T07:44:05.586Z,10.30
2022-09-18T07:47:26.366Z,8.18
2022-09-18T07:50:46.667Z,7.15
2022-09-18T07:54:13.245Z,9.10
2022-09-18T07:57:59.176Z,10.07
2022-09-18T08:01:43.371Z,7.86
2022-09-18T08:05:07.917Z,7.69
2022-09-18T08:08:46.715Z,9.10
2022-09-18T08:12:13.581Z,6.78
2022-09-18T08:15:54.311Z,6.42
2022-09-18T08:19:44.245Z,7.36
2022-09-18T08:23:19.082Z,8.16
2022-09-18T08:26:44.554Z,6.03
2022-09-18T08:30:04.837Z,6.23
2022-09-18T08:33:23.836Z,5.82
2022-09-18T08:36:44.681Z,6.30
2022-09-18T08:41:10.566Z,7.81
2022-09-18T08:44:47.810Z,6.53
2022-09-18T08:48:24.612Z,6.94
2022-09-18T08:51:57.527Z,6.18
2022-09-18T08:55:27.756Z,5.11
2022-09-18T08:59:28.124Z,4.35
2022-09-18T09:02:51.717Z,3.99
2022-09-18T09:06:53.178Z,3.98
2022-09-18T09:10:48.226Z,5.30
2022-09-18T09:15:00.183Z,5.44
2022-09-18T09:18:30.288Z,5.21
2022-09-18T09:22:08.702Z,4.92
2022-09-18T09:25:47.224Z,3.59
2022-09-18T09:29:33.145Z,3.23
2022-09-18T09:33:04.961Z,4.49
2022-09-18T09:36:38.126Z,4.35
2022-09-18T09:40:16.312Z,3.00
2022-09-18T09:43:49.329Z,3.16
2022-09-18T09:47:35.537Z,3.25
2022-09-18T09:51:05.585Z,3.15
2022-09-18T09:54:24.485Z,2.94
2022-09-18T09:58:02.546Z,3.14
2022-09-18T10:01:30.656Z,3.25
2022-09-18T10:05:10.142Z,3.84
2022-09-18T10:08:48.962Z,3.02
2022-09-18T10:12:30.370Z,3.40
2022-09-18T10:16:00.908Z,2.76
2022-09-18T10:19:25.570Z,2.90
2022-09-18T10:22:45.410Z,2.50
2022-09-18T10:26:04.872Z,2.75
2022-09-18T10:29:25.083Z,3.05
2022-09-18T10:32:51.306Z,3.28
2022-09-18T10:36:26.903Z,6.34
2022-09-18T10:40:00.118Z,6.72
2022-09-18T10:43:24.353Z,8.90
2022-09-18T10:47:03.439Z,8.74
2022-09-18T10:50:26.133Z,8.35
2022-09-18T10:53:45.630Z,7.19
2022-09-18T10:57:37.402Z,5.24
2022-09-18T11:01:10.509Z,2.96
2022-09-18T11:04:39.935Z,3.04
2022-09-18T11:08:23.152Z,2.83
2022-09-18T11:11:52.188Z,4.30
2022-09-18T11:15:25.654Z,4.14
2022-09-18T11:18:43.916Z,3.86
2022-09-18T11:22:08.234Z,4.21
2022-09-18T11:25:34.063Z,3.94
2022-09-18T11:29:12.184Z,3.00
2022-09-18T11:32:41.787Z,2.65
2022-09-18T11:36:13.536Z,2.56
2022-09-18T11:39:46.701Z,2.79
2022-09-18T11:43:24.838Z,3.29
2022-09-18T11:47:08.761Z,7.51
2022-09-18T11:50:42.544Z,8.78
2022-09-18T11:54:16.834Z,6.36
2022-09-18T11:57:42.615Z,2.66
2022-09-18T12:01:20.961Z,3.28
2022-09-18T12:04:54.387Z,3.63
2022-09-18T12:08:28.071Z,3.16
2022-09-18T12:12:07.260Z,2.31
2022-09-18T12:15:40.995Z,2.20
2022-09-18T12:19:12.987Z,2.03
2022-09-18T12:22:49.149Z,1.89
2022-09-18T12:26:29.398Z,2.07
2022-09-18T12:30:11.660Z,2.27
2022-09-18T12:33:50.388Z,2.57
2022-09-18T12:37:41.950Z,2.53
2022-09-18T12:41:40.182Z,3.61
2022-09-18T12:45:57.450Z,3.77
2022-09-18T12:49:48.832Z,4.13
2022-09-18T12:53:37.876Z,4.05
2022-09-18T12:57:22.439Z,5.05
2022-09-18T13:00:51.845Z,4.34
2022-09-18T13:04:31.610Z,5.40
2022-09-18T13:08:00.126Z,5.74
2022-09-18T13:11:32.363Z,6.80
2022-09-18T13:15:22.977Z,7.10
2022-09-18T13:18:52.953Z,6.62
2022-09-18T13:22:27.596Z,5.60
2022-09-18T13:25:40.697Z,6.96
2022-09-18T13:28:47.979Z,7.83
2022-09-18T13:31:59.128Z,6.49
2022-09-18T13:35:10.901Z,5.13
2022-09-18T13:38:23.468Z,7.17
2022-09-18T13:41:34.813Z,6.10
2022-09-18T13:44:41.844Z,6.54
2022-09-18T13:48:08.429Z,7.36
2022-09-18T13:51:31.410Z,6.41
2022-09-18T13:54:37.406Z,6.81
2022-09-18T13:57:51.914Z,6.99
2022-09-18T14:00:57.743Z,6.16
2022-09-18T14:04:08.450Z,7.40
2022-09-18T14:07:56.515Z,6.95
2022-09-18T14:11:17.750Z,5.98
2022-09-18T14:14:28.258Z,6.63
2022-09-18T14:17:41.475Z,6.90
2022-09-18T14:20:56.438Z,6.06
2022-09-18T14:24:38.166Z,6.66
2022-09-18T14:27:57.951Z,7.11
2022-09-18T14:31:30.062Z,7.55
2022-09-18T14:34:43.782Z,6.51
2022-09-18T14:37:52.194Z,7.38
2022-09-18T14:41:18.414Z,8.57
2022-09-18T14:44:26.435Z,8.59
2022-09-18T14:47:32.082Z,8.18
2022-09-18T14:50:40.920Z,9.01
2022-09-18T14:53:53.483Z,8.92
2022-09-18T14:57:05.131Z,7.78
2022-09-18T15:00:22.922Z,8.33
2022-09-18T15:03:35.013Z,7.65
2022-09-18T15:06:47.990Z,8.04
2022-09-18T15:10:03.525Z,8.43
2022-09-18T15:13:15.319Z,8.12
2022-09-18T15:16:24.641Z,10.50
2022-09-18T15:19:32.137Z,12.50
2022-09-18T15:22:37.886Z,9.20
2022-09-18T15:25:51.367Z,9.43
2022-09-18T15:29:08.749Z,9.28
2022-09-18T15:32:23.934Z,9.37
2022-09-18T15:35:39.632Z,7.97
2022-09-18T15:38:48.837Z,6.60
2022-09-18T15:41:57.376Z,7.91
2022-09-18T15:45:25.701Z,8.60
2022-09-18T15:48:51.951Z,6.59
2022-09-18T15:52:38.876Z,6.17
2022-09-18T15:55:58.642Z,5.42
2022-09-18T15:59:18.817Z,5.49
2022-09-18T16:02:37.802Z,6.62
2022-09-18T16:05:55.260Z,8.44
2022-09-18T16:09:04.997Z,7.89
2022-09-18T16:12:38.258Z,10.75
2022-09-18T16:15:48.182Z,10.78
2022-09-18T16:19:05.811Z,11.79
2022-09-18T16:22:14.098Z,13.49
2022-09-18T16:25:41.742Z,13.74
2022-09-18T16:28:53.602Z,12.75
2022-09-18T16:32:05.042Z,13.32
2022-09-18T16:35:17.005Z,14.03
2022-09-18T16:38:22.615Z,14.89
2022-09-18T16:41:28.614Z,15.11
2022-09-18T16:44:35.856Z,16.41
2022-09-18T16:47:53.589Z,19.81
2022-09-18T16:50:59.319Z,23.62
2022-09-18T16:54:07.791Z,24.30
2022-09-18T16:57:22.392Z,25.19
2022-09-18T17:00:28.550Z,22.64
2022-09-18T17:03:50.266Z,23.42
2022-09-18T17:06:58.397Z,22.68
2022-09-18T17:10:17.855Z,27.19
2022-09-18T17:13:25.433Z,33.07
2022-09-18T17:16:44.182Z,28.82
2022-09-18T17:19:53.978Z,20.46
2022-09-18T17:22:59.696Z,15.50
2022-09-18T17:26:22.543Z,14.90
2022-09-18T17:29:32.191Z,15.12
2022-09-18T17:32:39.113Z,13.92
2022-09-18T17:35:47.690Z,15.07
2022-09-18T17:38:53.585Z,17.19
2022-09-18T17:41:59.199Z,19.13
2022-09-18T17:45:05.333Z,22.88
2022-09-18T17:48:21.859Z,26.66
2022-09-18T17:51:33.461Z,23.27
2022-09-18T17:54:39.810Z,22.15
2022-09-18T17:57:45.958Z,22.05
2022-09-18T18:00:51.798Z,17.19
2022-09-18T18:03:58.191Z,14.64
2022-09-18T18:07:07.993Z,13.97
2022-09-18T18:10:13.840Z,14.12
2022-09-18T18:13:20.388Z,25.65
2022-09-18T18:16:30.767Z,28.40
2022-09-18T18:19:36.633Z,31.58
2022-09-18T18:22:45.773Z,33.18
2022-09-18T18:25:55.463Z,39.76
2022-09-18T18:29:02.497Z,43.88
2022-09-18T18:32:08.641Z,35.07
2022-09-18T18:35:15.820Z,31.06
2022-09-18T18:38:24.839Z,26.04
2022-09-18T18:41:34.156Z,27.11
2022-09-18T18:44:42.164Z,24.87
2022-09-18T18:47:48.783Z,23.70
2022-09-18T18:50:58.588Z,23.56
2022-09-18T18:54:10.059Z,23.02
2022-09-18T18:57:15.574Z,24.57
2022-09-18T19:00:21.848Z,23.73
2022-09-18T19:03:28.263Z,25.90
2022-09-18T19:06:34.280Z,26.16
2022-09-18T19:09:42.947Z,27.10
2022-09-18T19:12:48.687Z,25.77
2022-09-18T19:15:54.869Z,23.87
2022-09-18T19:19:03.894Z,22.69
2022-09-18T19:22:16.912Z,24.18
2022-09-18T19:25:25.894Z,22.89
2022-09-18T19:28:33.387Z,22.37
2022-09-18T19:31:42.912Z,21.03
2022-09-18T19:34:48.538Z,22.11
2022-09-18T19:37:54.504Z,23.42
2022-09-18T19:41:09.318Z,22.38
2022-09-18T19:44:24.357Z,22.56
2022-09-18T19:47:35.292Z,21.69
2022-09-18T19:50:42.897Z,24.30
2022-09-18T19:53:48.857Z,21.68
2022-09-18T19:56:59.186Z,18.31
2022-09-18T20:00:05.999Z,17.93
2022-09-18T20:03:17.739Z,16.84
2022-09-18T20:06:23.675Z,15.54
2022-09-18T20:09:30.819Z,16.40
2022-09-18T20:12:43.417Z,17.29
2022-09-18T20:15:48.958Z,17.00
2022-09-18T20:18:54.808Z,15.86
2022-09-18T20:22:02.378Z,15.82
2022-09-18T20:25:09.344Z,15.53
2022-09-18T20:28:17.661Z,15.31
2022-09-18T20:31:24.315Z,13.31
2022-09-18T20:34:29.916Z,13.07
2022-09-18T20:37:35.760Z,15.11
2022-09-18T20:40:42.311Z,15.47
2022-09-18T20:43:55.100Z,14.12
2022-09-18T20:47:00.736Z,14.57
2022-09-18T20:50:08.951Z,15.11
2022-09-18T20:53:14.470Z,14.85
2022-09-18T20:56:21.838Z,14.21
2022-09-18T20:59:31.440Z,14.88
2022-09-18T21:02:38.282Z,17.25
2022-09-18T21:05:45.816Z,18.25
2022-09-18T21:08:54.032Z,18.38
2022-09-18T21:11:59.674Z,18.53
2022-09-18T21:15:11.089Z,17.15
2022-09-18T21:18:19.185Z,15.37
2022-09-18T21:21:25.372Z,13.66
2022-09-18T21:24:32.533Z,12.62
2022-09-18T21:27:38.023Z,12.66
2022-09-18T21:30:46.180Z,12.24
2022-09-18T21:33:53.181Z,13.49
2022-09-18T21:37:02.759Z,15.07
2022-09-18T21:40:09.954Z,15.43
2022-09-18T21:43:17.412Z,17.66
2022-09-18T21:46:26.466Z,21.69
2022-09-18T21:49:33.110Z,24.89
2022-09-18T21:52:38.612Z,22.23
2022-09-18T21:55:46.285Z,20.11
2022-09-18T21:58:56.859Z,16.77
2022-09-18T22:02:12.042Z,14.28
2022-09-18T22:05:18.830Z,13.42
2022-09-18T22:08:25.787Z,10.49
2022-09-18T22:11:37.153Z,10.52
2022-09-18T22:14:43.594Z,10.49
2022-09-18T22:18:07.543Z,8.92
2022-09-18T22:21:23.328Z,8.84
2022-09-18T22:24:30.596Z,9.14
2022-09-18T22:27:41.863Z,8.96
2022-09-18T22:30:49.493Z,9.41
2022-09-18T22:34:01.288Z,9.56
2022-09-18T22:37:08.697Z,18.01
2022-09-18T22:40:16.533Z,37.53
2022-09-18T22:43:27.331Z,17.49
2022-09-18T22:46:41.628Z,10.16
2022-09-18T22:49:59.680Z,9.92
2022-09-18T22:53:14.196Z,10.39
2022-09-18T22:56:34.578Z,8.68
2022-09-18T22:59:48.364Z,6.78
2022-09-18T23:03:04.892Z,6.78
2022-09-18T23:06:16.425Z,6.98
2022-09-18T23:09:35.792Z,3.96
2022-09-18T23:12:43.476Z,4.50
2022-09-18T23:15:51.542Z,4.61
2022-09-18T23:19:01.102Z,5.81
2022-09-18T23:22:10.156Z,5.99
2022-09-18T23:25:16.626Z,8.33
2022-09-18T23:28:26.213Z,10.30
2022-09-18T23:31:40.918Z,14.68
2022-09-18T23:41:20.341Z,7.96
2022-09-18T23:44:28.744Z,6.15
2022-09-18T23:47:37.410Z,5.92
2022-09-18T23:50:43.545Z,6.08
2022-09-18T23:53:59.858Z,6.83
2022-09-18T23:57:10.903Z,6.42
